createdAt,value
2023-11-18T00:02:59.902Z,5.80
2023-11-18T00:08:42.678Z,5.73
2023-11-18T00:11:12.275Z,5.81
2023-11-18T00:13:40.803Z,5.89
2023-11-18T00:16:13.283Z,5.94
2023-11-18T00:18:42.027Z,5.83
2023-11-18T00:21:10.490Z,5.91
2023-11-18T00:23:49.496Z,5.78
2023-11-18T00:26:19.928Z,5.80
2023-11-18T00:28:51.544Z,5.76
2023-11-18T00:31:19.876Z,5.52
2023-11-18T00:33:48.264Z,5.49
2023-11-18T00:36:16.773Z,5.49
2023-11-18T00:38:45.694Z,5.38
2023-11-18T00:41:14.393Z,5.28
2023-11-18T00:43:44.126Z,5.21
2023-11-18T00:46:12.659Z,5.23
2023-11-18T00:48:43.679Z,5.16
2023-11-18T00:51:12.258Z,5.07
2023-11-18T00:53:40.519Z,5.04
2023-11-18T00:56:11.112Z,5.03
2023-11-18T00:58:41.664Z,4.80
2023-11-18T01:01:11.695Z,5.21
2023-11-18T01:03:40.879Z,5.27
2023-11-18T01:06:09.503Z,5.29
2023-11-18T01:08:37.941Z,5.27
2023-11-18T01:11:07.058Z,5.23
2023-11-18T01:13:35.415Z,5.15
2023-11-18T01:18:20.752Z,5.04
2023-11-18T01:20:49.415Z,4.99
2023-11-18T01:24:34.530Z,5.09
2023-11-18T01:30:00.719Z,4.64
2023-11-18T01:33:07.195Z,5.29
2023-11-18T01:38:53.212Z,5.46
2023-11-18T01:42:51.066Z,5.59
2023-11-18T01:45:39.116Z,5.77
2023-11-18T01:48:57.054Z,5.97
2023-11-18T01:54:26.371Z,6.08
2023-11-18T01:57:50.202Z,6.19
2023-11-18T02:00:55.771Z,6.14
2023-11-18T02:04:10.950Z,6.09
2023-11-18T02:14:47.205Z,6.40
2023-11-18T02:18:00.033Z,6.36
2023-11-18T02:21:06.483Z,6.45
2023-11-18T02:26:59.341Z,6.80
2023-11-18T02:30:04.592Z,6.70
2023-11-18T02:33:19.420Z,6.85
2023-11-18T02:36:37.433Z,6.78
2023-11-18T02:43:32.508Z,6.75
2023-11-18T02:46:46.727Z,6.78
2023-11-18T02:49:15.146Z,6.81
2023-11-18T02:55:29.599Z,6.56
2023-11-18T02:58:34.399Z,6.53
2023-11-18T03:04:16.172Z,6.48
2023-11-18T03:07:22.690Z,6.56
2023-11-18T03:10:38.663Z,6.43
2023-11-18T03:16:14.084Z,6.39
2023-11-18T03:19:33.159Z,6.53
2023-11-18T03:22:42.073Z,6.46
2023-11-18T03:26:00.637Z,6.52
2023-11-18T03:31:30.278Z,6.53
2023-11-18T03:34:49.155Z,6.58
2023-11-18T03:56:03.763Z,6.62
2023-11-18T04:01:30.134Z,6.69
2023-11-18T04:04:49.258Z,6.74
2023-11-18T04:07:17.516Z,6.59
2023-11-18T04:09:45.728Z,6.45
2023-11-18T04:12:13.985Z,6.46
2023-11-18T04:14:42.322Z,6.55
2023-11-18T04:17:10.935Z,6.66
2023-11-18T04:19:40.205Z,6.46
2023-11-18T04:22:10.816Z,6.50
2023-11-18T04:24:39.698Z,6.51
2023-11-18T04:27:08.592Z,6.60
2023-11-18T04:29:38.600Z,6.63
2023-11-18T04:32:07.465Z,6.63
2023-11-18T04:34:37.806Z,6.62
2023-11-18T04:37:07.087Z,6.60
2023-11-18T04:39:38.185Z,6.67
2023-11-18T04:42:06.799Z,6.52
2023-11-18T04:44:35.661Z,6.62
2023-11-18T04:47:04.733Z,6.58
2023-11-18T04:49:33.009Z,6.67
2023-11-18T04:52:01.389Z,6.61
2023-11-18T04:54:29.794Z,6.59
2023-11-18T04:56:59.571Z,6.76
2023-11-18T04:59:27.875Z,6.67
2023-11-18T05:01:56.252Z,6.60
2023-11-18T05:04:24.565Z,6.65
2023-11-18T05:06:53.181Z,6.53
2023-11-18T05:51:41.674Z,6.49
2023-11-18T05:55:06.991Z,6.56
2023-11-18T05:58:48.281Z,6.36
2023-11-18T06:02:06.369Z,6.57
2023-11-18T06:04:34.690Z,6.35
2023-11-18T06:07:03.763Z,6.38
2023-11-18T06:09:32.170Z,6.46
2023-11-18T06:12:01.912Z,6.32
2023-11-18T06:14:30.191Z,6.29
2023-11-18T06:17:00.722Z,6.25
2023-11-18T06:19:30.560Z,6.21
2023-11-18T06:21:58.759Z,6.22
2023-11-18T06:24:27.448Z,6.10
2023-11-18T06:26:56.021Z,6.09
2023-11-18T06:29:24.941Z,6.01
2023-11-18T06:31:53.391Z,6.05
2023-11-18T06:34:22.013Z,5.97
2023-11-18T06:36:51.964Z,6.03
2023-11-18T06:39:20.897Z,5.98
2023-11-18T06:41:52.637Z,5.98
2023-11-18T06:44:24.992Z,5.97
2023-11-18T06:46:53.405Z,5.87
2023-11-18T06:49:21.730Z,5.92
2023-11-18T06:51:52.122Z,5.91
2023-11-18T06:54:22.315Z,5.88
2023-11-18T06:56:54.051Z,5.72
2023-11-18T06:59:22.414Z,5.75
2023-11-18T07:04:37.072Z,5.82
2023-11-18T07:07:05.574Z,5.79
2023-11-18T07:09:37.180Z,5.82
2023-11-18T07:12:06.167Z,5.86
2023-11-18T07:14:34.650Z,5.79
2023-11-18T07:17:03.032Z,5.80
2023-11-18T07:19:32.301Z,5.99
2023-11-18T07:22:01.952Z,6.11
2023-11-18T07:24:31.164Z,6.26
2023-11-18T07:27:00.885Z,6.33
2023-11-18T07:34:53.409Z,6.34
2023-11-18T07:41:22.263Z,6.08
2023-11-18T07:51:01.513Z,6.70
2023-11-18T07:56:43.555Z,6.97
2023-11-18T08:00:19.397Z,6.79
2023-11-18T08:05:42.737Z,7.11
2023-11-18T08:09:05.300Z,7.20
2023-11-18T08:14:37.568Z,7.26
2023-11-18T08:17:06.783Z,7.31
2023-11-18T08:19:36.624Z,7.52
2023-11-18T08:22:05.240Z,7.63
2023-11-18T08:24:34.525Z,7.33
2023-11-18T08:27:04.545Z,7.13
2023-11-18T08:29:36.869Z,7.58
2023-11-18T08:32:06.900Z,7.42
2023-11-18T08:34:50.821Z,7.45
2023-11-18T08:37:36.011Z,7.65
2023-11-18T08:40:24.369Z,7.45
2023-11-18T08:43:16.539Z,7.66
2023-11-18T08:46:14.213Z,7.65
2023-11-18T08:49:13.994Z,7.96
2023-11-18T08:51:50.411Z,8.18
2023-11-18T08:54:26.604Z,7.87
2023-11-18T08:57:27.477Z,8.29
2023-11-18T09:00:00.051Z,8.31
2023-11-18T09:02:36.643Z,8.00
2023-11-18T09:05:14.023Z,8.20
2023-11-18T09:07:44.491Z,8.03
2023-11-18T09:10:13.403Z,8.33
2023-11-18T09:12:46.380Z,8.36
2023-11-18T09:15:23.862Z,8.51
2023-11-18T09:17:54.660Z,8.45
2023-11-18T09:20:23.496Z,8.60
2023-11-18T09:22:56.960Z,8.43
2023-11-18T09:25:25.418Z,8.46
2023-11-18T09:27:54.060Z,8.80
2023-11-18T09:30:22.359Z,8.73
2023-11-18T09:32:55.862Z,8.90
2023-11-18T09:35:24.471Z,8.77
2023-11-18T09:37:54.143Z,8.46
2023-11-18T09:40:28.079Z,8.43
2023-11-18T09:42:59.433Z,8.47
2023-11-18T09:47:46.080Z,8.64
2023-11-18T09:51:34.881Z,8.98
2023-11-18T09:54:07.391Z,9.39
2023-11-18T09:56:47.172Z,9.29
2023-11-18T09:59:21.066Z,9.53
2023-11-18T10:01:54.894Z,10.06
2023-11-18T10:04:28.762Z,12.97
2023-11-18T10:06:59.308Z,15.70
2023-11-18T10:09:31.187Z,17.52
2023-11-18T10:12:06.598Z,17.74
2023-11-18T10:14:36.311Z,18.12
2023-11-18T10:17:09.054Z,17.87
2023-11-18T10:19:57.137Z,18.71
2023-11-18T10:22:29.288Z,19.92
2023-11-18T10:24:59.268Z,20.22
2023-11-18T10:27:28.846Z,18.55
2023-11-18T10:30:53.821Z,19.11
2023-11-18T10:33:23.158Z,17.42
2023-11-18T10:35:56.926Z,17.84
2023-11-18T10:38:27.468Z,17.13
2023-11-18T10:40:57.370Z,15.82
2023-11-18T10:43:26.681Z,14.01
2023-11-18T10:46:12.795Z,13.80
2023-11-18T10:48:48.694Z,13.09
2023-11-18T10:51:20.641Z,11.82
2023-11-18T10:53:59.810Z,11.85
2023-11-18T10:56:29.946Z,11.24
2023-11-18T10:58:59.708Z,10.92
2023-11-18T11:01:33.829Z,11.15
2023-11-18T11:04:05.932Z,11.33
2023-11-18T11:06:35.959Z,11.26
2023-11-18T11:09:11.126Z,10.63
2023-11-18T11:11:42.672Z,10.51
2023-11-18T11:14:14.272Z,10.51
2023-11-18T11:16:47.122Z,10.79
2023-11-18T11:19:23.903Z,10.69
2023-11-18T11:21:57.868Z,10.65
2023-11-18T11:24:38.460Z,10.99
2023-11-18T11:27:24.502Z,10.63
2023-11-18T11:29:59.529Z,10.70
2023-11-18T11:32:32.871Z,10.79
2023-11-18T11:35:08.950Z,10.63
2023-11-18T11:37:40.780Z,10.79
2023-11-18T11:40:11.825Z,10.54
2023-11-18T11:42:42.546Z,10.18
2023-11-18T11:45:21.624Z,10.46
2023-11-18T11:47:53.279Z,10.34
2023-11-18T11:50:33.073Z,10.40
2023-11-18T11:53:09.590Z,10.12
2023-11-18T11:55:46.017Z,10.09
2023-11-18T11:58:28.354Z,10.09
2023-11-18T12:00:56.898Z,9.88
2023-11-18T12:03:26.797Z,9.82
2023-11-18T12:06:11.579Z,9.98
2023-11-18T12:08:45.495Z,9.80
2023-11-18T12:11:17.074Z,9.85
2023-11-18T12:14:11.145Z,10.08
2023-11-18T12:17:02.405Z,10.15
2023-11-18T12:19:46.201Z,9.94
2023-11-18T12:22:19.066Z,9.75
2023-11-18T12:24:57.382Z,9.80
2023-11-18T12:27:52.796Z,9.71
2023-11-18T12:30:44.911Z,9.68
2023-11-18T12:33:20.245Z,9.43
2023-11-18T12:36:27.095Z,9.90
2023-11-18T12:39:33.254Z,9.95
2023-11-18T12:42:12.894Z,9.71
2023-11-18T12:44:53.275Z,9.78
2023-11-18T12:47:29.797Z,9.75
2023-11-18T12:50:01.378Z,9.13
2023-11-18T12:52:29.971Z,9.41
2023-11-18T12:55:00.486Z,9.67
2023-11-18T12:57:32.865Z,9.64
2023-11-18T13:00:05.591Z,9.60
2023-11-18T13:02:34.212Z,9.36
2023-11-18T13:05:10.204Z,9.61
2023-11-18T13:07:40.267Z,9.50
2023-11-18T13:10:10.809Z,9.30
2023-11-18T13:12:39.290Z,9.38
2023-11-18T13:15:09.697Z,9.40
2023-11-18T13:17:38.910Z,9.29
2023-11-18T13:20:17.375Z,9.31
2023-11-18T13:22:48.375Z,9.20
2023-11-18T13:25:19.489Z,9.21
2023-11-18T13:27:48.764Z,9.22
2023-11-18T13:30:47.615Z,9.30
2023-11-18T13:33:16.158Z,9.13
2023-11-18T13:35:45.689Z,9.13
2023-11-18T13:38:15.313Z,9.28
2023-11-18T13:40:48.003Z,9.23
2023-11-18T13:43:16.513Z,8.99
2023-11-18T13:45:44.872Z,9.10
2023-11-18T13:48:15.239Z,9.15
2023-11-18T13:50:44.722Z,9.06
2023-11-18T13:53:13.669Z,9.26
2023-11-18T13:55:43.010Z,9.12
2023-11-18T13:58:12.749Z,9.16
2023-11-18T14:00:43.223Z,8.99
2023-11-18T14:03:13.224Z,8.86
2023-11-18T14:05:46.034Z,8.99
2023-11-18T14:08:21.128Z,9.04
2023-11-18T14:11:02.012Z,8.96
2023-11-18T14:13:32.390Z,8.72
2023-11-18T14:16:01.039Z,9.04
2023-11-18T14:18:29.612Z,8.91
2023-11-18T14:21:02.078Z,8.83
2023-11-18T14:23:30.437Z,8.76
2023-11-18T14:25:59.265Z,8.88
2023-11-18T14:28:47.829Z,8.68
2023-11-18T14:31:16.427Z,8.94
2023-11-18T14:33:44.905Z,8.77
2023-11-18T14:36:13.438Z,8.81
2023-11-18T14:38:41.754Z,8.82
